createdAt,value
2023-04-27T00:04:02.105Z,67.90
2023-04-27T00:09:05.004Z,69.00
2023-04-27T00:14:07.553Z,69.10
2023-04-27T00:19:10.449Z,69.48
2023-04-27T00:24:12.878Z,69.27
2023-04-27T00:29:15.649Z,70.05
2023-04-27T00:34:18.244Z,69.35
2023-04-27T00:39:23.558Z,70.28
2023-04-27T00:44:27.027Z,71.05
2023-04-27T00:49:29.912Z,71.03
2023-04-27T00:54:32.745Z,71.33
2023-04-27T00:59:35.751Z,71.61
2023-04-27T01:04:38.637Z,71.96
2023-04-27T01:09:41.333Z,72.76
2023-04-27T01:14:44.808Z,72.47
2023-04-27T01:19:48.500Z,72.32
2023-04-27T01:24:52.620Z,72.58
2023-04-27T01:29:55.134Z,73.13
2023-04-27T01:34:57.620Z,73.12
2023-04-27T01:40:01.744Z,72.98
2023-04-27T01:45:07.453Z,72.81
2023-04-27T01:50:10.322Z,73.65
2023-04-27T01:55:15.448Z,73.97
2023-04-27T02:00:18.909Z,73.81
2023-04-27T02:05:24.909Z,73.86
2023-04-27T02:10:28.723Z,73.96
2023-04-27T02:15:33.894Z,74.08
2023-04-27T02:20:36.451Z,73.49
2023-04-27T02:25:39.359Z,73.23
2023-04-27T02:30:41.865Z,70.98
2023-04-27T02:35:44.416Z,69.04
2023-04-27T02:40:47.020Z,66.86
2023-04-27T02:45:49.572Z,65.20
2023-04-27T02:50:52.152Z,63.65
2023-04-27T02:55:54.735Z,62.55
2023-04-27T03:00:57.933Z,60.88
2023-04-27T03:06:00.601Z,59.62
2023-04-27T03:11:03.099Z,57.38
2023-04-27T03:16:05.996Z,56.05
2023-04-27T03:21:13.031Z,55.39
2023-04-27T03:26:16.363Z,54.75
2023-04-27T03:31:19.046Z,54.48
2023-04-27T03:36:21.843Z,52.68
2023-04-27T03:41:24.293Z,51.26
2023-04-27T03:46:27.601Z,50.04
2023-04-27T03:51:32.868Z,49.68
2023-04-27T03:56:35.502Z,48.63
2023-04-27T04:01:40.262Z,47.23
2023-04-27T04:06:42.748Z,45.50
2023-04-27T04:11:45.322Z,44.33
2023-04-27T04:17:08.686Z,43.41
2023-04-27T04:22:12.250Z,41.38
2023-04-27T04:27:14.754Z,39.66
2023-04-27T04:32:18.891Z,39.01
2023-04-27T04:37:21.454Z,37.99
2023-04-27T04:42:24.150Z,38.13
2023-04-27T04:47:27.573Z,37.72
2023-04-27T04:52:30.232Z,36.74
2023-04-27T04:57:32.721Z,36.95
2023-04-27T05:02:35.429Z,35.76
2023-04-27T05:07:38.060Z,34.73
2023-04-27T05:12:40.589Z,33.19
2023-04-27T05:17:43.094Z,32.58
2023-04-27T05:22:45.732Z,31.62
2023-04-27T05:27:48.210Z,32.59
2023-04-27T05:32:50.898Z,31.23
2023-04-27T05:37:53.611Z,30.90
2023-04-27T05:42:56.782Z,30.94
2023-04-27T05:47:59.331Z,31.27
2023-04-27T05:53:01.812Z,31.15
2023-04-27T05:58:07.597Z,30.55
2023-04-27T06:03:11.961Z,30.11
2023-04-27T06:08:14.505Z,29.47
2023-04-27T06:13:17.573Z,29.48
2023-04-27T06:18:20.092Z,29.43
2023-04-27T06:23:22.625Z,29.10
2023-04-27T06:28:25.257Z,28.55
2023-04-27T06:33:27.853Z,27.79
2023-04-27T06:38:30.490Z,27.73
2023-04-27T06:43:33.033Z,27.58
2023-04-27T06:48:35.544Z,27.11
2023-04-27T06:53:38.019Z,27.70
2023-04-27T06:58:40.503Z,28.75
2023-04-27T07:03:43.273Z,27.48
2023-04-27T07:08:46.459Z,27.60
2023-04-27T07:13:48.973Z,27.89
2023-04-27T07:18:51.540Z,28.44
2023-04-27T07:23:55.060Z,27.01
2023-04-27T07:29:00.859Z,27.69
2023-04-27T07:34:04.377Z,30.34
2023-04-27T07:39:08.359Z,29.04
2023-04-27T07:44:12.580Z,28.25
2023-04-27T07:49:16.580Z,29.83
2023-04-27T07:54:19.363Z,27.87
2023-04-27T07:59:22.104Z,26.87
2023-04-27T08:04:25.027Z,26.38
2023-04-27T08:09:27.797Z,25.87
2023-04-27T08:14:30.396Z,25.85
2023-04-27T08:19:32.882Z,24.60
2023-04-27T08:24:35.483Z,24.85
2023-04-27T08:29:38.020Z,24.68
2023-04-27T08:34:40.708Z,24.43
2023-04-27T08:39:43.315Z,24.87
2023-04-27T08:44:45.888Z,24.98
2023-04-27T08:49:48.425Z,25.49
2023-04-27T08:54:50.954Z,25.61
2023-04-27T09:00:04.948Z,24.87
2023-04-27T09:05:16.696Z,24.34
2023-04-27T09:10:19.259Z,24.06
2023-04-27T09:15:23.140Z,24.98
2023-04-27T09:20:27.619Z,23.99
2023-04-27T09:25:32.306Z,24.62
2023-04-27T09:30:37.306Z,25.24
2023-04-27T09:35:42.731Z,25.06
2023-04-27T09:40:45.237Z,25.14
2023-04-27T09:45:49.476Z,25.62
2023-04-27T09:50:53.207Z,25.62
2023-04-27T09:56:21.472Z,25.45
2023-04-27T10:01:42.299Z,24.27
2023-04-27T10:07:04.436Z,25.40
2023-04-27T10:12:20.336Z,26.40
2023-04-27T10:17:32.913Z,26.71
2023-04-27T10:22:46.951Z,28.38
2023-04-27T10:27:52.598Z,27.94
2023-04-27T10:32:59.926Z,26.47
2023-04-27T10:38:31.654Z,24.91
2023-04-27T10:43:37.135Z,25.92
2023-04-27T10:48:41.502Z,26.21
2023-04-27T10:53:44.211Z,25.42
2023-04-27T10:58:49.409Z,25.35
2023-04-27T11:03:59.652Z,27.06
2023-04-27T11:09:02.403Z,27.14
2023-04-27T11:14:05.086Z,28.09
2023-04-27T11:19:07.718Z,26.47
2023-04-27T11:24:15.276Z,27.97
2023-04-27T11:29:18.136Z,27.77
2023-04-27T11:34:25.971Z,27.09
2023-04-27T11:39:29.425Z,27.58
2023-04-27T11:44:34.014Z,28.84
2023-04-27T11:49:37.925Z,29.23
2023-04-27T11:55:00.668Z,28.55
2023-04-27T12:00:11.530Z,27.64
2023-04-27T12:05:20.927Z,28.13
2023-04-27T12:10:23.636Z,28.46
2023-04-27T12:15:26.416Z,29.93
2023-04-27T12:20:29.090Z,30.11
2023-04-27T12:25:31.565Z,29.31
2023-04-27T12:30:35.356Z,29.97
2023-04-27T12:35:38.205Z,30.33
2023-04-27T12:40:40.766Z,30.54
2023-04-27T12:45:43.517Z,30.34
2023-04-27T12:50:46.220Z,30.54
2023-04-27T12:55:48.778Z,30.93
2023-04-27T13:00:51.364Z,30.88
2023-04-27T13:05:54.584Z,31.63
2023-04-27T13:10:57.402Z,32.11
2023-04-27T13:16:00.384Z,33.20
2023-04-27T13:21:05.392Z,33.00
2023-04-27T13:26:07.975Z,33.33
2023-04-27T13:31:11.202Z,32.74
2023-04-27T13:36:14.129Z,32.97
2023-04-27T13:41:17.008Z,33.21
2023-04-27T13:46:19.556Z,33.85
2023-04-27T13:51:22.180Z,33.68
2023-04-27T13:56:24.640Z,33.41
2023-04-27T14:01:27.488Z,33.81
2023-04-27T14:06:30.059Z,33.86
2023-04-27T14:11:37.304Z,34.42
2023-04-27T14:16:47.741Z,34.43
2023-04-27T14:21:50.669Z,35.00
2023-04-27T14:26:53.164Z,34.50
2023-04-27T14:31:56.503Z,34.12
2023-04-27T14:36:59.034Z,33.75
2023-04-27T14:42:02.323Z,34.23
2023-04-27T14:47:04.923Z,34.87
2023-04-27T14:52:07.432Z,35.51
2023-04-27T14:57:09.923Z,35.83
2023-04-27T15:02:12.411Z,36.21
2023-04-27T15:07:14.931Z,36.83
2023-04-27T15:12:17.357Z,37.54
2023-04-27T15:17:20.184Z,37.60
2023-04-27T15:22:23.988Z,37.98
2023-04-27T15:27:26.683Z,38.52
2023-04-27T15:32:30.462Z,39.14
2023-04-27T15:37:33.857Z,39.41
2023-04-27T15:42:36.325Z,39.61
2023-04-27T15:47:38.809Z,39.89
2023-04-27T15:52:41.374Z,39.81
2023-04-27T15:57:43.927Z,40.47
2023-04-27T16:02:46.956Z,40.96
2023-04-27T16:07:49.499Z,41.89
2023-04-27T16:12:51.992Z,41.88
2023-04-27T16:17:54.592Z,42.51
2023-04-27T16:22:57.105Z,42.87
2023-04-27T16:27:59.569Z,43.64
2023-04-27T16:33:02.080Z,44.00
2023-04-27T16:38:06.277Z,44.16
2023-04-27T16:43:09.115Z,44.53
2023-04-27T16:48:12.343Z,44.68
2023-04-27T16:53:15.278Z,44.83
2023-04-27T16:58:17.929Z,44.79
2023-04-27T17:03:20.596Z,44.94
2023-04-27T17:08:23.103Z,45.12
2023-04-27T17:13:25.728Z,45.82
2023-04-27T17:18:28.237Z,46.23
2023-04-27T17:23:33.984Z,46.82
2023-04-27T17:28:36.602Z,46.86
2023-04-27T17:33:43.831Z,47.18
2023-04-27T17:38:46.830Z,47.52
2023-04-27T17:43:50.275Z,47.83
2023-04-27T17:48:52.849Z,47.72
2023-04-27T17:53:55.393Z,48.34
2023-04-27T17:58:57.922Z,48.28
2023-04-27T18:04:03.764Z,48.98
2023-04-27T18:09:07.013Z,49.56
2023-04-27T18:14:09.494Z,50.67
2023-04-27T18:19:12.175Z,51.84
2023-04-27T18:24:14.822Z,52.68
2023-04-27T18:29:17.240Z,53.29
2023-04-27T18:34:20.312Z,53.76
2023-04-27T18:39:22.731Z,55.77
2023-04-27T18:44:25.195Z,57.26
2023-04-27T18:49:27.655Z,58.04
2023-04-27T18:54:30.123Z,58.32
2023-04-27T18:59:32.744Z,58.24
2023-04-27T19:04:35.895Z,58.48
2023-04-27T19:09:39.231Z,58.85
2023-04-27T19:14:42.401Z,58.30
2023-04-27T19:19:46.124Z,58.01
2023-04-27T19:24:48.773Z,56.72
2023-04-27T19:29:53.975Z,55.61
2023-04-27T19:34:57.969Z,54.82
2023-04-27T19:40:00.743Z,54.33
2023-04-27T19:45:04.308Z,54.23
2023-04-27T19:50:08.685Z,54.01
2023-04-27T19:55:11.199Z,54.31
2023-04-27T20:00:14.106Z,54.32
2023-04-27T20:05:18.030Z,54.71
2023-04-27T20:10:21.418Z,55.20
2023-04-27T20:15:23.935Z,54.92
2023-04-27T20:20:26.756Z,55.38
2023-04-27T20:25:29.429Z,56.23
2023-04-27T20:30:31.925Z,56.64
2023-04-27T20:35:36.586Z,57.03
2023-04-27T20:40:39.833Z,57.22
2023-04-27T20:45:42.603Z,57.30
2023-04-27T20:50:46.025Z,57.77
2023-04-27T20:55:48.622Z,57.77
2023-04-27T21:00:51.270Z,58.01
2023-04-27T21:05:53.922Z,58.12
2023-04-27T21:10:57.548Z,58.44
2023-04-27T21:16:00.107Z,58.45
2023-04-27T21:21:02.595Z,58.89
2023-04-27T21:26:05.193Z,58.95
2023-04-27T21:31:07.719Z,59.17
2023-04-27T21:36:10.230Z,59.04
2023-04-27T21:41:12.695Z,59.40
2023-04-27T21:46:15.263Z,59.37
2023-04-27T21:51:17.792Z,59.34
2023-04-27T21:56:20.350Z,59.77
2023-04-27T22:01:23.149Z,59.69
2023-04-27T22:06:25.986Z,59.77
2023-04-27T22:11:28.427Z,59.97
2023-04-27T22:16:31.095Z,59.96
2023-04-27T22:21:33.772Z,59.65
2023-04-27T22:26:36.364Z,59.83
2023-04-27T22:31:39.514Z,60.09
2023-04-27T22:36:42.252Z,59.91
2023-04-27T22:41:46.529Z,60.09
2023-04-27T22:46:49.125Z,60.32
2023-04-27T22:51:51.811Z,60.47
2023-04-27T22:56:54.332Z,60.67
2023-04-27T23:01:56.924Z,60.88
2023-04-27T23:06:59.620Z,61.04
2023-04-27T23:12:02.141Z,61.38
2023-04-27T23:17:04.782Z,61.36
2023-04-27T23:22:07.399Z,61.41
2023-04-27T23:27:09.901Z,61.65
2023-04-27T23:32:12.762Z,61.75
2023-04-27T23:37:15.328Z,62.04
2023-04-27T23:42:17.878Z,62.27
2023-04-27T23:47:20.339Z,62.35
2023-04-27T23:52:22.941Z,62.81
2023-04-27T23:57:25.798Z,62.84
